createdAt,value
2019-04-04T00:00:09.533Z,10.30
2019-04-04T00:02:37.257Z,10.57
2019-04-04T00:05:05.017Z,11.77
2019-04-04T00:07:32.334Z,10.37
2019-04-04T00:09:59.567Z,12.13
2019-04-04T00:12:27.086Z,10.80
2019-04-04T00:14:54.649Z,12.73
2019-04-04T00:17:23.221Z,11.73
2019-04-04T00:19:51.085Z,10.80
2019-04-04T00:22:18.675Z,14.27
2019-04-04T00:24:45.892Z,14.80
2019-04-04T00:27:13.679Z,13.77
2019-04-04T00:29:41.217Z,15.83
2019-04-04T00:32:08.557Z,13.43
2019-04-04T00:34:35.784Z,12.70
2019-04-04T00:37:04.775Z,17.70
2019-04-04T00:39:32.293Z,19.23
2019-04-04T00:41:59.609Z,15.27
2019-04-04T00:44:26.870Z,17.47
2019-04-04T00:46:54.096Z,16.03
2019-04-04T00:49:21.696Z,17.83
2019-04-04T00:51:48.913Z,17.20
2019-04-04T00:54:16.510Z,15.47
2019-04-04T00:56:44.066Z,20.30
2019-04-04T00:59:11.643Z,20.60
2019-04-04T01:01:38.945Z,17.07
2019-04-04T01:04:06.188Z,19.33
2019-04-04T01:06:33.714Z,20.27
2019-04-04T01:09:01.691Z,19.17
2019-04-04T01:11:29.086Z,14.83
2019-04-04T01:13:57.824Z,23.13
2019-04-04T01:16:25.784Z,19.77
2019-04-04T01:18:53.766Z,22.33
2019-04-04T01:21:22.239Z,18.10
2019-04-04T01:23:50.202Z,20.23
2019-04-04T01:26:17.946Z,20.57
2019-04-04T01:28:45.215Z,17.60
2019-04-04T01:31:14.749Z,19.20
2019-04-04T01:33:41.965Z,22.67
2019-04-04T01:36:09.518Z,23.07
2019-04-04T01:38:37.178Z,22.57
2019-04-04T01:41:05.174Z,23.63
2019-04-04T01:43:32.914Z,19.57
2019-04-04T01:46:00.495Z,20.53
2019-04-04T01:48:28.021Z,23.90
2019-04-04T01:50:55.258Z,25.93
2019-04-04T01:53:22.838Z,21.97
2019-04-04T01:55:50.397Z,28.07
2019-04-04T01:58:17.719Z,28.23
2019-04-04T02:00:46.078Z,22.03
2019-04-04T02:03:14.201Z,18.73
2019-04-04T02:05:41.763Z,21.47
2019-04-04T02:08:08.983Z,20.50
2019-04-04T02:10:36.565Z,21.83
2019-04-04T02:13:04.152Z,19.07
2019-04-04T02:15:31.798Z,18.67
2019-04-04T02:17:59.025Z,15.87
2019-04-04T02:20:26.984Z,18.67
2019-04-04T02:22:55.286Z,19.73
2019-04-04T02:25:22.636Z,19.87
2019-04-04T02:27:50.609Z,22.00
2019-04-04T02:30:17.914Z,20.07
2019-04-04T02:32:45.237Z,19.47
2019-04-04T02:35:12.779Z,19.13
2019-04-04T02:37:40.009Z,22.83
2019-04-04T02:40:09.001Z,20.43
2019-04-04T02:42:37.685Z,19.10
2019-04-04T02:45:06.441Z,22.80
2019-04-04T02:47:33.930Z,20.00
2019-04-04T02:50:02.205Z,20.20
2019-04-04T02:52:29.651Z,20.83
2019-04-04T02:54:58.257Z,22.07
2019-04-04T02:57:26.457Z,26.90
2019-04-04T02:59:54.280Z,25.47
2019-04-04T03:02:21.772Z,27.10
2019-04-04T03:04:49.169Z,29.83
2019-04-04T03:07:17.095Z,23.27
2019-04-04T03:09:44.443Z,25.60
2019-04-04T03:12:11.669Z,28.03
2019-04-04T03:14:39.376Z,21.30
2019-04-04T03:17:07.010Z,26.80
2019-04-04T03:19:34.412Z,25.13
2019-04-04T03:22:01.861Z,23.47
2019-04-04T03:24:29.263Z,23.33
2019-04-04T03:26:56.547Z,21.20
2019-04-04T03:29:23.779Z,21.13
2019-04-04T03:31:51.188Z,21.23
2019-04-04T03:34:18.819Z,25.57
2019-04-04T03:36:46.217Z,21.73
2019-04-04T03:39:13.851Z,22.87
2019-04-04T03:41:41.259Z,27.77
2019-04-04T03:44:08.856Z,21.30
2019-04-04T03:46:38.762Z,23.27
2019-04-04T03:49:05.997Z,25.40
2019-04-04T03:51:37.101Z,26.57
2019-04-04T03:54:05.154Z,23.87
2019-04-04T03:56:38.827Z,26.27
2019-04-04T03:59:01.820Z,27.10
2019-04-04T04:01:29.528Z,35.33
2019-04-04T04:03:56.860Z,28.40
2019-04-04T04:06:24.165Z,21.93
2019-04-04T04:08:54.826Z,23.07
2019-04-04T04:11:21.015Z,27.67
2019-04-04T04:13:49.965Z,22.60
2019-04-04T04:16:17.401Z,24.40
2019-04-04T04:18:44.635Z,27.20
2019-04-04T04:21:12.621Z,29.23
2019-04-04T04:23:39.853Z,31.63
2019-04-04T04:26:09.482Z,29.37
2019-04-04T04:28:36.695Z,25.00
2019-04-04T04:31:04.140Z,29.00
2019-04-04T04:33:31.711Z,26.30
2019-04-04T04:35:59.271Z,30.40
2019-04-04T04:38:27.078Z,30.13
2019-04-04T04:40:55.405Z,29.13
2019-04-04T04:43:22.629Z,30.60
2019-04-04T04:45:49.946Z,35.67
2019-04-04T04:48:17.447Z,35.07
2019-04-04T04:50:44.674Z,31.50
2019-04-04T04:53:12.062Z,23.60
2019-04-04T04:55:39.290Z,20.23
2019-04-04T04:58:09.847Z,30.90
2019-04-04T05:00:35.676Z,23.23
2019-04-04T05:03:02.922Z,33.00
2019-04-04T05:05:31.877Z,32.87
2019-04-04T05:07:59.326Z,39.30
2019-04-04T05:10:26.558Z,34.83
2019-04-04T05:12:53.889Z,38.53
2019-04-04T05:15:21.461Z,36.70
2019-04-04T05:17:49.277Z,38.07
2019-04-04T05:20:16.673Z,35.73
2019-04-04T05:22:44.214Z,26.80
2019-04-04T05:25:11.440Z,36.57
2019-04-04T05:27:38.702Z,38.30
2019-04-04T05:30:08.356Z,36.53
2019-04-04T05:32:35.249Z,37.43
2019-04-04T05:35:02.870Z,33.63
2019-04-04T05:37:30.783Z,25.37
2019-04-04T05:39:58.357Z,31.97
2019-04-04T05:42:26.207Z,31.33
2019-04-04T05:44:53.534Z,36.70
2019-04-04T05:47:23.126Z,36.23
2019-04-04T05:49:50.632Z,29.57
2019-04-04T05:52:18.023Z,28.27
2019-04-04T05:54:45.249Z,29.90
2019-04-04T05:57:12.510Z,28.23
2019-04-04T05:59:42.181Z,28.90
2019-04-04T06:02:11.080Z,32.77
2019-04-04T06:04:38.755Z,30.13
2019-04-04T06:07:06.089Z,33.93
2019-04-04T06:09:33.330Z,24.77
2019-04-04T06:12:01.005Z,25.37
2019-04-04T06:14:29.989Z,24.37
2019-04-04T06:16:57.473Z,22.33
2019-04-04T06:19:25.017Z,22.00
2019-04-04T06:21:52.416Z,24.30
2019-04-04T06:24:19.941Z,23.53
2019-04-04T06:26:47.591Z,22.80
2019-04-04T06:29:17.114Z,18.07
2019-04-04T06:31:44.650Z,18.30
2019-04-04T06:34:12.211Z,17.47
2019-04-04T06:36:39.513Z,16.83
2019-04-04T06:39:07.487Z,17.20
2019-04-04T06:41:35.209Z,18.80
2019-04-04T06:44:02.657Z,18.03
2019-04-04T06:46:29.890Z,15.53
2019-04-04T06:48:57.140Z,16.17
2019-04-04T06:51:24.360Z,15.83
2019-04-04T06:53:53.761Z,51.93
2019-04-04T06:56:21.163Z,43.83
2019-04-04T06:58:48.823Z,13.73
2019-04-04T07:01:16.384Z,13.17
2019-04-04T07:03:43.688Z,12.37
2019-04-04T07:06:10.989Z,10.83
2019-04-04T07:08:38.289Z,9.30
2019-04-04T07:11:15.521Z,9.57
2019-04-04T07:13:42.388Z,7.73
2019-04-04T07:16:07.750Z,5.83
2019-04-04T07:18:33.390Z,6.80
2019-04-04T07:21:03.460Z,7.77
2019-04-04T07:23:30.150Z,7.30
2019-04-04T07:25:57.388Z,6.20
2019-04-04T07:28:24.975Z,7.23
2019-04-04T07:30:54.552Z,6.40
2019-04-04T07:33:21.714Z,5.80
2019-04-04T07:35:49.585Z,6.50
2019-04-04T07:38:17.279Z,6.27
2019-04-04T07:40:44.802Z,7.50
2019-04-04T07:43:12.107Z,6.00
2019-04-04T07:45:39.363Z,5.37
2019-04-04T07:48:07.092Z,5.37
2019-04-04T07:50:34.335Z,5.20
2019-04-04T07:53:04.059Z,6.03
2019-04-04T07:55:30.773Z,5.90
2019-04-04T07:57:58.330Z,6.60
2019-04-04T08:00:26.090Z,6.90
2019-04-04T08:02:53.339Z,6.47
2019-04-04T08:05:20.567Z,9.37
2019-04-04T08:07:48.159Z,7.70
2019-04-04T08:10:20.967Z,7.97
2019-04-04T08:12:44.565Z,8.60
2019-04-04T08:15:11.916Z,7.73
2019-04-04T08:17:39.437Z,8.63
2019-04-04T08:20:06.975Z,9.97
2019-04-04T08:22:34.206Z,10.27
2019-04-04T08:25:01.470Z,9.73
2019-04-04T08:27:29.053Z,10.90
2019-04-04T08:29:56.358Z,11.27
2019-04-04T08:32:23.582Z,12.93
2019-04-04T08:34:51.201Z,11.80
2019-04-04T08:37:19.069Z,8.73
2019-04-04T08:39:46.330Z,8.73
2019-04-04T08:42:13.556Z,7.87
2019-04-04T08:44:40.972Z,7.27
2019-04-04T08:47:08.485Z,6.73
2019-04-04T08:49:35.779Z,6.63
2019-04-04T08:52:15.870Z,7.83
2019-04-04T08:54:32.282Z,6.00
2019-04-04T08:56:59.520Z,6.40
2019-04-04T08:59:27.117Z,7.67
2019-04-04T09:01:54.661Z,6.37
2019-04-04T09:04:24.031Z,6.77
2019-04-04T09:06:51.137Z,6.80
2019-04-04T09:09:19.285Z,6.70
2019-04-04T09:11:46.842Z,6.90
2019-04-04T09:14:14.502Z,7.73
2019-04-04T09:16:42.058Z,7.53
2019-04-04T09:19:09.419Z,5.97
2019-04-04T09:21:36.656Z,8.30
2019-04-04T09:24:04.345Z,4.37
2019-04-04T09:26:31.589Z,8.40
2019-04-04T09:28:59.654Z,5.83
2019-04-04T09:31:26.898Z,5.47
2019-04-04T09:33:54.129Z,6.77
2019-04-04T09:36:21.401Z,6.10
2019-04-04T09:38:48.738Z,5.10
2019-04-04T09:41:16.042Z,4.97
2019-04-04T09:43:43.375Z,5.97
2019-04-04T09:46:10.682Z,6.83
2019-04-04T09:48:37.930Z,4.67
2019-04-04T09:51:05.237Z,4.07
2019-04-04T09:53:32.469Z,4.57
2019-04-04T09:55:59.825Z,5.07
2019-04-04T09:58:27.249Z,5.57
2019-04-04T10:00:54.560Z,5.43
2019-04-04T10:03:21.796Z,5.80
2019-04-04T10:05:49.114Z,5.73
2019-04-04T10:08:16.357Z,6.83
2019-04-04T10:10:44.266Z,8.50
2019-04-04T10:13:11.492Z,6.43
2019-04-04T10:15:38.795Z,6.20
2019-04-04T10:18:06.033Z,6.07
2019-04-04T10:20:33.299Z,6.87
2019-04-04T10:23:00.931Z,6.27
2019-04-04T10:25:28.511Z,6.50
2019-04-04T10:27:55.741Z,7.27
2019-04-04T10:30:23.036Z,5.63
2019-04-04T10:32:50.277Z,6.30
2019-04-04T10:35:17.905Z,4.80
2019-04-04T10:37:45.774Z,5.57
2019-04-04T10:40:13.057Z,5.50
2019-04-04T10:42:40.394Z,5.03
2019-04-04T10:45:07.982Z,6.50
2019-04-04T10:47:35.220Z,5.97
2019-04-04T10:50:02.864Z,5.70
2019-04-04T10:52:30.125Z,5.00
2019-04-04T10:54:57.662Z,6.70
2019-04-04T10:57:24.990Z,5.47
2019-04-04T10:59:54.734Z,5.83
2019-04-04T11:02:41.025Z,5.60
2019-04-04T11:05:08.362Z,5.50
2019-04-04T11:07:35.669Z,5.33
2019-04-04T11:10:03.717Z,5.10
2019-04-04T11:12:34.075Z,5.37
2019-04-04T11:15:00.286Z,5.63
2019-04-04T11:17:27.922Z,3.83
2019-04-04T11:19:55.478Z,3.10
2019-04-04T11:22:23.458Z,3.40
2019-04-04T11:24:50.694Z,2.97
2019-04-04T11:27:17.959Z,4.00
2019-04-04T11:29:45.299Z,2.73
2019-04-04T11:32:12.883Z,2.20
2019-04-04T11:34:52.343Z,2.20
2019-04-04T11:37:09.369Z,1.70
2019-04-04T11:39:36.979Z,1.70
2019-04-04T11:42:04.374Z,1.10
2019-04-04T11:44:31.604Z,1.97
2019-04-04T11:46:58.929Z,1.20
2019-04-04T11:49:26.260Z,1.70
2019-04-04T11:51:53.574Z,1.17
2019-04-04T11:54:20.805Z,1.17
2019-04-04T11:56:48.070Z,0.70
2019-04-04T11:59:15.598Z,1.00
2019-04-04T12:01:43.744Z,2.20
2019-04-04T12:04:10.982Z,0.93
2019-04-04T12:06:38.301Z,0.90
2019-04-04T12:09:07.227Z,0.60
2019-04-04T12:11:34.929Z,0.70
2019-04-04T12:14:02.223Z,1.30
2019-04-04T12:16:32.624Z,0.93
2019-04-04T12:18:58.951Z,1.13
2019-04-04T12:21:26.493Z,1.03
2019-04-04T12:23:53.734Z,1.23
2019-04-04T12:26:21.488Z,0.80
2019-04-04T12:28:49.074Z,1.20
2019-04-04T12:31:16.678Z,1.87
2019-04-04T12:33:43.914Z,2.80
2019-04-04T12:36:23.804Z,1.10
2019-04-04T12:38:40.599Z,1.73
2019-04-04T12:41:07.865Z,1.20
2019-04-04T12:43:35.208Z,0.97
2019-04-04T12:46:02.906Z,1.00
2019-04-04T12:48:30.137Z,1.20
2019-04-04T12:50:57.828Z,1.77
2019-04-04T12:53:25.153Z,1.40
2019-04-04T12:55:54.167Z,1.50
2019-04-04T12:58:21.606Z,1.73
2019-04-04T13:00:49.191Z,2.00
2019-04-04T13:03:16.946Z,2.00
2019-04-04T13:05:44.286Z,1.73
2019-04-04T13:08:11.577Z,1.77
2019-04-04T13:10:38.820Z,1.27
2019-04-04T13:13:06.228Z,1.80
2019-04-04T13:15:33.448Z,1.37
2019-04-04T13:18:00.762Z,1.87
2019-04-04T13:20:28.322Z,1.50
2019-04-04T13:22:55.639Z,1.30
2019-04-04T13:25:22.764Z,1.20
2019-04-04T13:27:50.020Z,1.23
2019-04-04T13:30:17.540Z,1.30
2019-04-04T13:32:44.800Z,1.40
2019-04-04T13:35:12.346Z,1.20
2019-04-04T13:37:39.605Z,1.33
2019-04-04T13:40:07.349Z,1.00
2019-04-04T13:42:35.022Z,3.57
2019-04-04T13:45:02.577Z,1.37
2019-04-04T13:47:29.932Z,2.27
2019-04-04T13:49:57.810Z,0.90
2019-04-04T13:52:26.477Z,1.10
2019-04-04T13:54:55.958Z,0.90
2019-04-04T13:57:23.524Z,0.90
2019-04-04T13:59:50.766Z,1.23
2019-04-04T14:02:18.029Z,1.10
2019-04-04T14:04:45.271Z,0.93
2019-04-04T14:07:12.553Z,1.30
2019-04-04T14:09:39.995Z,1.20
2019-04-04T14:12:07.297Z,3.97
2019-04-04T14:14:34.524Z,1.63
2019-04-04T14:17:02.081Z,1.10
2019-04-04T14:19:31.487Z,2.00
2019-04-04T14:21:58.489Z,1.30
2019-04-04T14:24:25.717Z,0.90
2019-04-04T14:26:53.032Z,0.77
2019-04-04T14:29:27.404Z,0.93
2019-04-04T14:31:49.534Z,0.70
2019-04-04T14:34:17.145Z,1.10
2019-04-04T14:36:44.703Z,0.90
2019-04-04T14:39:12.005Z,2.43
2019-04-04T14:41:39.513Z,1.30
2019-04-04T14:44:06.806Z,1.83
2019-04-04T14:46:34.141Z,1.07
2019-04-04T14:49:01.476Z,1.20
2019-04-04T14:51:28.724Z,1.37
2019-04-04T14:53:57.984Z,1.40
2019-04-04T14:56:25.782Z,1.30
2019-04-04T14:58:53.360Z,1.90
2019-04-04T15:01:20.897Z,2.30
2019-04-04T15:03:48.215Z,3.40
2019-04-04T15:06:16.067Z,2.90
2019-04-04T15:08:43.790Z,3.47
2019-04-04T15:11:23.125Z,3.90
2019-04-04T15:13:40.177Z,4.23
2019-04-04T15:16:12.524Z,3.43
2019-04-04T15:18:40.271Z,4.17
2019-04-04T15:21:07.826Z,5.27
2019-04-04T15:23:35.146Z,5.00
2019-04-04T15:26:02.416Z,5.17
2019-04-04T15:28:29.995Z,4.73
2019-04-04T15:30:57.963Z,5.47
2019-04-04T15:33:25.251Z,5.10
2019-04-04T15:35:52.573Z,4.77
2019-04-04T15:38:20.196Z,4.60
2019-04-04T15:40:47.438Z,3.97
2019-04-04T15:43:15.419Z,4.40
2019-04-04T15:45:42.646Z,4.00
2019-04-04T15:48:10.058Z,4.33
2019-04-04T15:50:37.289Z,3.50
2019-04-04T15:53:04.541Z,4.63
2019-04-04T15:55:31.874Z,3.70
2019-04-04T15:57:59.361Z,3.87
2019-04-04T16:00:26.661Z,4.23
2019-04-04T16:02:53.986Z,4.83
2019-04-04T16:05:21.302Z,3.90
2019-04-04T16:07:48.887Z,2.70
2019-04-04T16:10:16.651Z,4.03
2019-04-04T16:12:44.255Z,3.50
2019-04-04T16:15:11.684Z,3.73
2019-04-04T16:17:38.923Z,4.60
2019-04-04T16:20:07.093Z,3.30
2019-04-04T16:22:34.323Z,4.47
2019-04-04T16:25:01.586Z,4.03
2019-04-04T16:27:28.834Z,3.13
2019-04-04T16:29:56.505Z,3.67
2019-04-04T16:32:23.738Z,3.73
2019-04-04T16:34:52.525Z,4.53
2019-04-04T16:37:20.135Z,4.13
2019-04-04T16:39:47.773Z,3.97
2019-04-04T16:42:15.000Z,3.40
2019-04-04T16:44:43.112Z,5.00
2019-04-04T16:47:10.651Z,5.00
2019-04-04T16:49:38.639Z,3.90
2019-04-04T16:52:07.198Z,3.57
2019-04-04T16:54:35.074Z,5.10
2019-04-04T16:57:02.406Z,6.10
2019-04-04T16:59:29.681Z,4.37
2019-04-04T17:01:56.909Z,17.87
2019-04-04T17:04:24.505Z,4.27
2019-04-04T17:06:54.474Z,3.80
2019-04-04T17:09:20.861Z,7.10
2019-04-04T17:11:48.390Z,5.47
2019-04-04T17:14:15.662Z,4.93
2019-04-04T17:16:42.998Z,4.53
2019-04-04T17:19:10.257Z,3.97
2019-04-04T17:21:37.501Z,3.93
2019-04-04T17:24:04.768Z,3.57
2019-04-04T17:26:32.121Z,3.60
2019-04-04T17:28:59.671Z,3.60
2019-04-04T17:31:27.277Z,3.50
2019-04-04T17:33:54.989Z,4.90
2019-04-04T17:36:22.248Z,4.97
2019-04-04T17:38:49.497Z,4.27
2019-04-04T17:41:16.764Z,5.10
2019-04-04T17:43:44.098Z,5.70
2019-04-04T17:46:11.479Z,5.37
2019-04-04T17:48:39.120Z,5.07
2019-04-04T17:51:06.497Z,4.87
2019-04-04T17:53:34.184Z,4.90
2019-04-04T17:56:01.885Z,5.00
2019-04-04T17:58:29.873Z,4.57
2019-04-04T18:00:57.208Z,4.87
2019-04-04T18:03:24.469Z,4.47
2019-04-04T18:05:51.741Z,4.80
2019-04-04T18:08:19.079Z,4.67
2019-04-04T18:10:46.739Z,4.63
2019-04-04T18:13:14.104Z,5.23
2019-04-04T18:15:41.352Z,4.90
2019-04-04T18:18:08.587Z,5.67
2019-04-04T18:20:36.265Z,5.00
2019-04-04T18:23:03.598Z,6.67
2019-04-04T18:25:30.978Z,4.50
2019-04-04T18:27:58.625Z,5.43
2019-04-04T18:30:25.881Z,5.43
2019-04-04T18:32:53.379Z,5.43
2019-04-04T18:35:20.995Z,9.30
2019-04-04T18:37:48.260Z,6.47
2019-04-04T18:40:15.726Z,7.77
2019-04-04T18:42:53.314Z,7.00
2019-04-04T18:45:13.431Z,8.40
2019-04-04T18:47:41.465Z,7.90
2019-04-04T18:50:09.318Z,7.47
2019-04-04T18:52:36.992Z,9.30
2019-04-04T18:55:04.854Z,7.83
2019-04-04T18:57:32.130Z,8.50
2019-04-04T18:59:59.663Z,7.23
2019-04-04T19:02:27.318Z,7.57
2019-04-04T19:04:54.653Z,8.57
2019-04-04T19:07:22.009Z,10.70
2019-04-04T19:09:49.270Z,7.80
2019-04-04T19:12:16.546Z,8.30
2019-04-04T19:14:43.782Z,9.33
2019-04-04T19:17:11.447Z,9.87
2019-04-04T19:19:38.866Z,12.20
2019-04-04T19:22:06.219Z,11.10
2019-04-04T19:24:33.647Z,11.63
2019-04-04T19:27:00.993Z,12.13
2019-04-04T19:29:31.425Z,11.97
2019-04-04T19:31:57.833Z,13.27
2019-04-04T19:34:25.388Z,12.33
2019-04-04T19:36:53.269Z,10.40
2019-04-04T19:39:20.515Z,10.40
2019-04-04T19:41:48.545Z,10.43
2019-04-04T19:44:16.542Z,9.83
2019-04-04T19:46:43.942Z,12.43
2019-04-04T19:49:11.576Z,10.70
2019-04-04T19:51:39.205Z,11.90
2019-04-04T19:54:07.286Z,15.53
2019-04-04T19:56:34.945Z,18.07
2019-04-04T19:59:02.526Z,21.47
2019-04-04T20:01:30.014Z,27.63
2019-04-04T20:03:57.634Z,20.83
2019-04-04T20:06:25.216Z,13.77
2019-04-04T20:08:53.751Z,12.40
2019-04-04T20:11:21.574Z,17.10
2019-04-04T20:13:48.814Z,12.53
2019-04-04T20:16:17.538Z,18.83
2019-04-04T20:18:44.855Z,25.23
2019-04-04T20:21:12.664Z,25.67
2019-04-04T20:23:40.050Z,18.97
2019-04-04T20:26:07.915Z,22.27
2019-04-04T20:28:35.242Z,19.80
2019-04-04T20:31:03.229Z,19.23
2019-04-04T20:33:30.890Z,21.70
2019-04-04T20:35:58.139Z,16.67
2019-04-04T20:38:25.627Z,19.10
2019-04-04T20:40:52.961Z,16.97
2019-04-04T20:43:20.778Z,16.77
2019-04-04T20:45:48.491Z,16.80
2019-04-04T20:48:16.013Z,13.73
2019-04-04T20:50:43.245Z,16.07
2019-04-04T20:53:10.726Z,18.87
2019-04-04T20:55:38.514Z,17.53
2019-04-04T20:58:06.078Z,17.70
2019-04-04T21:00:33.408Z,18.50
2019-04-04T21:03:00.666Z,16.73
2019-04-04T21:05:27.893Z,17.93
2019-04-04T21:07:55.197Z,20.23
2019-04-04T21:10:22.492Z,24.80
2019-04-04T21:12:49.793Z,28.93
2019-04-04T21:15:17.029Z,31.67
2019-04-04T21:17:44.330Z,29.77
2019-04-04T21:20:11.553Z,23.60
2019-04-04T21:22:38.914Z,22.50
2019-04-04T21:25:06.433Z,25.93
2019-04-04T21:27:33.700Z,33.43
2019-04-04T21:30:01.372Z,36.87
2019-04-04T21:32:29.155Z,33.27
2019-04-04T21:34:56.689Z,39.70
2019-04-04T21:37:24.360Z,38.17
2019-04-04T21:39:51.690Z,32.70
2019-04-04T21:42:18.993Z,29.30
2019-04-04T21:44:46.241Z,44.97
2019-04-04T21:47:13.551Z,58.00
2019-04-04T21:49:40.806Z,39.30
2019-04-04T21:52:08.214Z,39.60
2019-04-04T21:54:35.533Z,33.47
2019-04-04T21:57:02.793Z,46.10
2019-04-04T21:59:30.462Z,41.47
2019-04-04T22:02:00.568Z,37.50
2019-04-04T22:04:31.311Z,41.13
2019-04-04T22:07:04.345Z,41.20
2019-04-04T22:09:39.902Z,40.00
2019-04-04T22:12:11.277Z,35.80
2019-04-04T22:14:52.395Z,39.60
2019-04-04T22:17:28.134Z,46.17
2019-04-04T22:19:57.695Z,40.57
2019-04-04T22:22:27.750Z,40.07
2019-04-04T22:25:03.119Z,48.50
2019-04-04T22:27:33.079Z,52.90
2019-04-04T22:30:02.565Z,52.47
2019-04-04T22:32:31.462Z,49.90
2019-04-04T22:35:00.177Z,45.67
2019-04-04T22:37:30.787Z,50.17
2019-04-04T22:39:59.534Z,49.13
2019-04-04T22:42:31.930Z,47.57
2019-04-04T22:45:00.674Z,37.23
2019-04-04T22:47:29.146Z,33.33
2019-04-04T22:50:01.589Z,45.47
2019-04-04T22:52:32.525Z,29.90
2019-04-04T22:55:04.229Z,38.30
2019-04-04T22:57:36.016Z,46.17
2019-04-04T23:00:04.991Z,30.47
2019-04-04T23:02:33.240Z,35.73
2019-04-04T23:05:04.050Z,33.43
2019-04-04T23:07:35.424Z,32.10
2019-04-04T23:10:16.368Z,37.87
2019-04-04T23:12:51.551Z,38.70
2019-04-04T23:15:23.914Z,40.63
2019-04-04T23:17:58.205Z,39.70
2019-04-04T23:20:28.339Z,34.10
2019-04-04T23:22:57.455Z,26.37
2019-04-04T23:25:24.965Z,28.00
2019-04-04T23:27:52.194Z,27.70
2019-04-04T23:30:19.777Z,29.93
2019-04-04T23:32:47.668Z,26.73
2019-04-04T23:35:16.755Z,31.47
2019-04-04T23:37:44.156Z,26.57
2019-04-04T23:40:11.408Z,31.47
2019-04-04T23:42:38.906Z,29.83
2019-04-04T23:45:06.198Z,33.07
2019-04-04T23:47:42.497Z,32.93
2019-04-04T23:50:02.913Z,28.20
2019-04-04T23:52:30.474Z,29.90
2019-04-04T23:54:57.908Z,27.47
2019-04-04T23:57:25.491Z,28.17
2019-04-04T23:59:53.062Z,23.50
